createdAt,value
2023-03-10T00:02:12.253Z,98895.56
2023-03-10T00:04:41.575Z,98892.72
2023-03-10T00:07:11.018Z,98887.59
2023-03-10T00:09:40.277Z,98884.63
2023-03-10T00:12:13.370Z,98880.53
2023-03-10T00:14:42.741Z,98878.00
2023-03-10T00:17:12.252Z,98882.25
2023-03-10T00:19:41.547Z,98872.84
2023-03-10T00:22:10.799Z,98859.41
2023-03-10T00:24:40.099Z,98848.47
2023-03-10T00:27:09.458Z,98856.91
2023-03-10T00:29:41.334Z,98843.00
2023-03-10T00:32:10.777Z,98838.06
2023-03-10T00:34:40.060Z,98832.09
2023-03-10T00:37:09.426Z,98820.66
2023-03-10T00:39:38.912Z,98821.22
2023-03-10T00:42:08.530Z,98810.16
2023-03-10T00:44:38.008Z,98804.34
2023-03-10T00:47:10.011Z,98798.88
2023-03-10T00:49:39.274Z,98794.75
2023-03-10T00:52:09.022Z,98787.88
2023-03-10T00:54:42.449Z,98777.31
2023-03-10T00:57:12.062Z,98774.00
2023-03-10T00:59:49.906Z,98770.22
2023-03-10T01:02:23.169Z,98772.06
2023-03-10T01:04:52.454Z,98762.97
2023-03-10T01:07:21.752Z,98759.47
2023-03-10T01:09:51.065Z,98751.38
2023-03-10T01:12:20.355Z,98744.00
2023-03-10T01:14:49.641Z,98736.22
2023-03-10T01:17:18.887Z,98736.09
2023-03-10T01:19:50.813Z,98722.09
2023-03-10T01:22:20.190Z,98720.69
2023-03-10T01:24:49.461Z,98712.94
2023-03-10T01:27:20.703Z,98720.53
2023-03-10T01:29:50.010Z,98705.81
2023-03-10T01:32:19.287Z,98707.13
2023-03-10T01:34:51.238Z,98704.28
2023-03-10T01:37:21.197Z,98697.75
2023-03-10T01:39:50.482Z,98699.31
2023-03-10T01:42:19.756Z,98690.81
2023-03-10T01:45:07.676Z,98692.75
2023-03-10T01:47:36.953Z,98690.09
2023-03-10T01:50:14.610Z,98683.78
2023-03-10T01:52:46.715Z,98675.13
2023-03-10T01:55:19.567Z,98662.31
2023-03-10T01:57:52.625Z,98656.69
2023-03-10T02:00:23.326Z,98646.31
2023-03-10T02:02:57.579Z,98651.28
2023-03-10T02:05:31.038Z,98645.06
2023-03-10T02:08:02.270Z,98643.41
2023-03-10T02:10:32.546Z,98637.91
2023-03-10T02:13:01.811Z,98634.22
2023-03-10T02:15:31.919Z,98618.06
2023-03-10T02:18:02.173Z,98608.88
2023-03-10T02:20:43.164Z,98609.38
2023-03-10T02:23:15.225Z,98598.34
2023-03-10T02:25:50.173Z,98598.81
2023-03-10T02:28:22.237Z,98592.22
2023-03-10T02:30:55.063Z,98577.16
2023-03-10T02:33:28.344Z,98581.06
2023-03-10T02:36:04.239Z,98575.22
2023-03-10T02:38:33.579Z,98568.03
2023-03-10T02:41:05.117Z,98561.78
2023-03-10T02:43:37.564Z,98556.41
2023-03-10T02:46:08.428Z,98551.16
2023-03-10T02:48:40.143Z,98540.00
2023-03-10T02:51:13.739Z,98538.34
2023-03-10T02:53:43.039Z,98536.66
2023-03-10T02:56:12.851Z,98538.78
2023-03-10T02:58:44.882Z,98532.06
2023-03-10T03:01:14.277Z,98534.19
2023-03-10T03:03:43.839Z,98529.56
2023-03-10T03:06:14.396Z,98528.75
2023-03-10T03:08:44.254Z,98529.63
2023-03-10T03:11:13.622Z,98520.91
2023-03-10T03:13:45.939Z,98523.69
2023-03-10T03:16:15.292Z,98513.13
2023-03-10T03:18:44.596Z,98504.81
2023-03-10T03:21:17.316Z,98502.16
2023-03-10T03:23:47.825Z,98498.84
2023-03-10T03:26:20.142Z,98500.94
2023-03-10T03:28:52.330Z,98496.88
2023-03-10T03:31:24.179Z,98495.06
2023-03-10T03:33:53.826Z,98499.34
2023-03-10T03:36:23.249Z,98488.91
2023-03-10T03:38:52.567Z,98490.50
2023-03-10T03:41:21.864Z,98481.53
2023-03-10T03:43:53.778Z,98487.50
2023-03-10T03:46:23.143Z,98470.97
2023-03-10T03:48:52.465Z,98476.53
2023-03-10T03:51:21.742Z,98480.06
2023-03-10T03:53:51.091Z,98462.97
2023-03-10T03:56:20.450Z,98467.28
2023-03-10T03:58:49.782Z,98465.97
2023-03-10T04:01:21.612Z,98468.50
2023-03-10T04:03:50.980Z,98465.44
2023-03-10T04:06:20.244Z,98457.91
2023-03-10T04:08:51.942Z,98459.94
2023-03-10T04:11:21.671Z,98464.69
2023-03-10T04:13:50.910Z,98461.72
2023-03-10T04:16:22.822Z,98462.66
2023-03-10T04:18:52.171Z,98465.09
2023-03-10T04:21:21.550Z,98461.59
2023-03-10T04:23:50.826Z,98463.03
2023-03-10T04:26:20.143Z,98451.72
2023-03-10T04:28:49.535Z,98448.16
2023-03-10T04:31:23.179Z,98440.50
2023-03-10T04:33:52.894Z,98436.31
2023-03-10T04:36:23.435Z,98436.31
2023-03-10T04:38:53.102Z,98437.22
2023-03-10T04:41:22.423Z,98432.69
2023-03-10T04:43:51.758Z,98432.44
2023-03-10T04:46:23.789Z,98422.94
2023-03-10T04:48:53.130Z,98414.66
2023-03-10T04:51:22.440Z,98418.31
2023-03-10T04:53:51.838Z,98412.88
2023-03-10T04:56:21.714Z,98405.13
2023-03-10T04:58:50.972Z,98407.81
2023-03-10T05:01:22.835Z,98404.50
2023-03-10T05:03:52.227Z,98408.69
2023-03-10T05:06:24.147Z,98397.97
2023-03-10T05:08:53.388Z,98386.84
2023-03-10T05:11:23.959Z,98394.03
2023-03-10T05:13:53.368Z,98388.78
2023-03-10T05:16:26.292Z,98385.25
2023-03-10T05:18:55.632Z,98390.25
2023-03-10T05:21:24.892Z,98391.50
2023-03-10T05:23:54.181Z,98380.47
2023-03-10T05:26:23.447Z,98388.91
2023-03-10T05:28:52.763Z,98387.72
2023-03-10T05:31:26.391Z,98383.97
2023-03-10T05:33:56.126Z,98376.78
2023-03-10T05:36:26.032Z,98385.59
2023-03-10T05:38:55.338Z,98372.75
2023-03-10T05:41:24.710Z,98367.94
2023-03-10T05:43:54.022Z,98376.34
2023-03-10T05:46:26.844Z,98379.78
2023-03-10T05:48:56.306Z,98378.13
2023-03-10T05:51:26.120Z,98381.19
2023-03-10T05:53:55.358Z,98383.00
2023-03-10T05:56:25.068Z,98378.00
2023-03-10T05:58:54.327Z,98386.06
2023-03-10T06:01:26.553Z,98386.50
2023-03-10T06:03:55.856Z,98389.16
2023-03-10T06:06:25.129Z,98392.50
2023-03-10T06:08:54.487Z,98400.69
2023-03-10T06:11:24.062Z,98389.66
2023-03-10T06:13:53.469Z,98387.50
2023-03-10T06:16:22.766Z,98391.09
2023-03-10T06:18:58.665Z,98402.44
2023-03-10T06:21:29.444Z,98400.81
2023-03-10T06:23:59.277Z,98400.03
2023-03-10T06:26:28.557Z,98403.75
2023-03-10T06:28:57.759Z,98408.53
2023-03-10T06:31:27.270Z,98403.28
2023-03-10T06:33:59.393Z,98406.41
2023-03-10T06:36:31.869Z,98404.75
2023-03-10T06:39:01.329Z,98414.13
2023-03-10T06:41:30.633Z,98419.41
2023-03-10T06:43:59.923Z,98420.03
2023-03-10T06:46:29.212Z,98414.56
2023-03-10T06:49:01.043Z,98421.41
2023-03-10T06:51:30.489Z,98429.72
2023-03-10T06:53:59.973Z,98438.16
2023-03-10T06:56:29.238Z,98431.50
2023-03-10T06:58:58.480Z,98434.41
2023-03-10T07:01:36.329Z,98435.44
2023-03-10T07:04:08.282Z,98439.03
2023-03-10T07:06:37.491Z,98450.00
2023-03-10T07:09:11.252Z,98455.44
2023-03-10T07:11:40.479Z,98449.34
2023-03-10T07:14:10.039Z,98462.84
2023-03-10T07:16:42.102Z,98462.38
2023-03-10T07:19:14.451Z,98470.34
2023-03-10T07:21:43.724Z,98467.63
2023-03-10T07:24:13.179Z,98470.41
2023-03-10T07:26:42.682Z,98468.56
2023-03-10T07:29:12.035Z,98466.06
2023-03-10T07:31:41.355Z,98469.38
2023-03-10T07:34:10.578Z,98474.88
2023-03-10T07:36:42.480Z,98469.25
2023-03-10T07:39:11.925Z,98474.38
2023-03-10T07:41:41.157Z,98469.84
2023-03-10T07:44:10.535Z,98477.38
2023-03-10T07:46:39.839Z,98475.25
2023-03-10T07:49:09.063Z,98469.63
2023-03-10T07:51:38.310Z,98474.44
2023-03-10T07:54:10.123Z,98476.13
2023-03-10T07:56:39.410Z,98478.00
2023-03-10T07:59:08.640Z,98473.13
2023-03-10T08:01:37.944Z,98483.69
2023-03-10T08:04:08.195Z,98477.50
2023-03-10T08:06:38.165Z,98483.34
2023-03-10T08:09:10.002Z,98484.69
2023-03-10T08:11:39.362Z,98489.38
2023-03-10T08:14:08.613Z,98499.50
2023-03-10T08:16:38.186Z,98491.94
2023-03-10T08:19:07.682Z,98499.38
2023-03-10T08:21:36.898Z,98498.25
2023-03-10T08:24:06.599Z,98503.78
2023-03-10T08:26:38.593Z,98510.06
2023-03-10T08:29:07.937Z,98515.44
2023-03-10T08:31:37.559Z,98521.44
2023-03-10T08:34:06.835Z,98521.59
2023-03-10T08:36:36.455Z,98527.00
2023-03-10T08:39:06.505Z,98527.22
2023-03-10T08:41:41.950Z,98530.75
2023-03-10T08:44:15.177Z,98534.44
2023-03-10T08:46:46.781Z,98535.72
2023-03-10T08:49:16.418Z,98532.41
2023-03-10T08:51:45.903Z,98535.59
2023-03-10T08:54:18.258Z,98541.63
2023-03-10T08:56:50.142Z,98527.47
2023-03-10T08:59:19.612Z,98534.50
2023-03-10T09:01:49.579Z,98533.38
2023-03-10T09:04:18.907Z,98538.22
2023-03-10T09:06:48.138Z,98527.47
2023-03-10T09:09:17.421Z,98534.19
2023-03-10T09:11:50.446Z,98527.31
2023-03-10T09:14:20.221Z,98525.75
2023-03-10T09:16:49.731Z,98520.00
2023-03-10T09:19:19.100Z,98536.88
2023-03-10T09:21:48.509Z,98533.91
2023-03-10T09:24:18.097Z,98530.59
2023-03-10T09:26:49.951Z,98533.91
2023-03-10T09:29:20.365Z,98541.41
2023-03-10T09:31:52.280Z,98541.91
2023-03-10T09:34:21.563Z,98538.38
2023-03-10T09:36:50.782Z,98548.59
2023-03-10T09:39:19.985Z,98558.38
2023-03-10T09:42:36.502Z,98553.72
2023-03-10T09:45:22.706Z,98564.28
2023-03-10T09:48:03.844Z,98566.50
2023-03-10T09:50:38.954Z,98564.38
2023-03-10T09:53:18.950Z,98559.34
2023-03-10T09:55:49.103Z,98545.34
2023-03-10T09:58:29.549Z,98545.19
2023-03-10T10:00:59.283Z,98542.63
2023-03-10T10:03:46.374Z,98544.56
2023-03-10T10:06:21.967Z,98547.16
2023-03-10T10:09:04.340Z,98568.16
2023-03-10T10:11:34.531Z,98568.66
2023-03-10T10:14:27.841Z,98570.72
2023-03-10T10:17:04.248Z,98566.88
2023-03-10T10:19:36.974Z,98572.16
2023-03-10T10:22:12.904Z,98572.31
2023-03-10T10:24:42.306Z,98573.28
2023-03-10T10:27:11.539Z,98565.03
2023-03-10T10:29:47.011Z,98559.09
2023-03-10T10:32:18.338Z,98563.53
2023-03-10T10:34:49.286Z,98572.59
2023-03-10T10:37:26.902Z,98571.53
2023-03-10T10:39:58.457Z,98578.97
2023-03-10T10:42:29.684Z,98578.66
2023-03-10T10:45:04.002Z,98571.69
2023-03-10T10:47:35.094Z,98573.28
2023-03-10T10:50:21.083Z,98565.78
2023-03-10T10:52:53.178Z,98574.94
2023-03-10T10:55:29.924Z,98577.47
2023-03-10T10:58:02.160Z,98578.72
2023-03-10T11:00:38.213Z,98578.09
2023-03-10T11:03:21.901Z,98584.03
2023-03-10T11:05:51.107Z,98581.75
2023-03-10T11:08:26.070Z,98586.94
2023-03-10T11:11:03.224Z,98589.66
2023-03-10T11:13:40.174Z,98589.97
2023-03-10T11:16:18.917Z,98590.53
2023-03-10T11:18:55.212Z,98597.28
2023-03-10T11:21:28.640Z,98583.97
2023-03-10T11:24:06.770Z,98586.47
2023-03-10T11:26:49.677Z,98589.03
2023-03-10T11:29:30.704Z,98598.13
2023-03-10T11:32:09.926Z,98602.91
2023-03-10T11:34:44.652Z,98605.97
2023-03-10T11:37:24.527Z,98614.88
2023-03-10T11:40:07.888Z,98610.00
2023-03-10T11:42:41.626Z,98611.22
2023-03-10T11:45:27.015Z,98609.91
2023-03-10T11:48:10.269Z,98605.34
2023-03-10T11:50:48.397Z,98607.81
2023-03-10T11:53:24.518Z,98604.28
2023-03-10T11:55:55.228Z,98604.03
2023-03-10T11:58:30.558Z,98598.91
2023-03-10T12:01:01.142Z,98589.94
2023-03-10T12:03:44.870Z,98589.19
2023-03-10T12:06:20.094Z,98592.16
2023-03-10T12:08:52.339Z,98597.22
2023-03-10T12:11:25.221Z,98602.69
2023-03-10T12:13:59.316Z,98600.72
2023-03-10T12:16:31.775Z,98593.84
2023-03-10T12:19:04.110Z,98593.78
2023-03-10T12:21:34.740Z,98583.63
2023-03-10T12:24:06.479Z,98580.19
2023-03-10T12:27:02.407Z,98580.09
2023-03-10T12:29:37.721Z,98577.13
2023-03-10T12:32:07.886Z,98575.72
2023-03-10T12:34:39.749Z,98579.69
2023-03-10T12:37:11.026Z,98583.63
2023-03-10T12:39:42.869Z,98581.38
2023-03-10T12:42:31.434Z,98571.44
2023-03-10T12:45:10.958Z,98574.94
2023-03-10T12:47:51.946Z,98571.16
2023-03-10T12:50:32.738Z,98564.84
2023-03-10T12:53:08.191Z,98562.44
2023-03-10T12:55:44.406Z,98566.38
2023-03-10T12:58:21.125Z,98567.44
2023-03-10T13:00:53.164Z,98572.59
2023-03-10T13:03:29.703Z,98571.59
2023-03-10T13:06:09.436Z,98557.78
2023-03-10T13:08:49.209Z,98564.84
2023-03-10T13:11:35.986Z,98561.81
2023-03-10T13:14:07.251Z,98561.25
2023-03-10T13:16:36.653Z,98564.16
2023-03-10T13:19:06.497Z,98568.13
2023-03-10T13:21:40.517Z,98571.66
2023-03-10T13:24:26.106Z,98577.53
2023-03-10T13:27:06.248Z,98577.81
2023-03-10T13:29:35.918Z,98573.06
2023-03-10T13:32:05.567Z,98574.56
2023-03-10T13:34:36.826Z,98587.38
2023-03-10T13:37:10.817Z,98579.88
2023-03-10T13:39:40.497Z,98579.69
2023-03-10T13:42:28.300Z,98569.09
2023-03-10T13:45:00.346Z,98559.47
2023-03-10T13:47:31.922Z,98558.94
2023-03-10T13:50:04.099Z,98561.69
2023-03-10T13:52:35.968Z,98550.56
2023-03-10T13:55:15.513Z,98549.25
2023-03-10T13:57:46.401Z,98554.19
2023-03-10T14:00:19.124Z,98561.13
2023-03-10T14:02:50.331Z,98566.53
2023-03-10T14:05:41.610Z,98558.78
2023-03-10T14:08:22.823Z,98564.28
2023-03-10T14:10:52.135Z,98562.03
2023-03-10T14:13:46.285Z,98554.97
2023-03-10T14:16:15.952Z,98559.91
2023-03-10T14:18:46.108Z,98562.75
2023-03-10T14:21:34.086Z,98569.03
2023-03-10T14:24:13.810Z,98551.22
2023-03-10T14:26:43.625Z,98559.47
2023-03-10T14:29:18.022Z,98568.75
2023-03-10T14:31:52.887Z,98565.75
2023-03-10T14:34:22.145Z,98562.44
2023-03-10T14:36:51.371Z,98574.75
2023-03-10T14:39:23.175Z,98573.41
2023-03-10T14:41:53.569Z,98580.31
2023-03-10T14:44:22.897Z,98567.09
2023-03-10T14:46:53.421Z,98570.88
2023-03-10T14:49:26.053Z,98569.25
2023-03-10T14:51:55.469Z,98569.75
2023-03-10T14:54:27.689Z,98567.97
2023-03-10T14:56:59.766Z,98571.75
2023-03-10T14:59:31.083Z,98565.16
2023-03-10T15:02:06.819Z,98553.59
2023-03-10T15:04:36.347Z,98551.91
2023-03-10T15:07:05.807Z,98557.91
2023-03-10T15:09:38.059Z,98552.91
2023-03-10T15:12:08.043Z,98557.38
2023-03-10T15:14:37.569Z,98556.19
2023-03-10T15:17:07.254Z,98556.97
2023-03-10T15:19:36.541Z,98555.09
2023-03-10T15:22:06.020Z,98550.06
2023-03-10T15:24:37.962Z,98550.44
2023-03-10T15:27:07.452Z,98541.19
2023-03-10T15:29:36.721Z,98538.94
2023-03-10T15:32:06.527Z,98546.16
2023-03-10T15:34:35.824Z,98544.94
2023-03-10T15:37:07.417Z,98536.38
2023-03-10T15:39:39.252Z,98528.84
2023-03-10T15:42:08.810Z,98536.28
2023-03-10T15:44:38.712Z,98545.44
2023-03-10T15:47:08.495Z,98555.25
2023-03-10T15:49:41.488Z,98555.06
2023-03-10T15:52:10.787Z,98548.75
2023-03-10T15:54:42.833Z,98543.13
2023-03-10T15:57:12.108Z,98534.72
2023-03-10T15:59:41.519Z,98541.97
2023-03-10T16:02:14.745Z,98546.97
2023-03-10T16:04:44.808Z,98540.41
2023-03-10T16:07:14.721Z,98542.91
2023-03-10T16:09:47.455Z,98544.81
2023-03-10T16:12:16.711Z,98546.91
2023-03-10T16:14:45.956Z,98540.53
2023-03-10T16:17:15.568Z,98549.31
2023-03-10T16:19:44.823Z,98550.13
2023-03-10T16:22:14.122Z,98545.84
2023-03-10T16:24:46.513Z,98543.19
2023-03-10T16:27:16.105Z,98539.59
2023-03-10T16:29:45.378Z,98537.28
2023-03-10T16:32:15.098Z,98531.66
2023-03-10T16:34:44.452Z,98538.88
2023-03-10T16:37:13.808Z,98535.09
2023-03-10T16:39:45.689Z,98540.53
2023-03-10T16:42:14.908Z,98538.53
2023-03-10T16:44:44.170Z,98544.56
2023-03-10T16:47:13.488Z,98539.00
2023-03-10T16:49:42.708Z,98539.44
2023-03-10T16:52:12.002Z,98532.97
2023-03-10T16:54:41.387Z,98544.13
2023-03-10T16:57:13.214Z,98549.47
2023-03-10T16:59:44.715Z,98549.63
2023-03-10T17:02:16.955Z,98551.03
2023-03-10T17:04:46.932Z,98564.09
2023-03-10T17:07:16.218Z,98551.97
2023-03-10T17:09:45.767Z,98552.50
2023-03-10T17:12:18.340Z,98551.06
2023-03-10T17:14:47.587Z,98552.31
2023-03-10T17:17:16.811Z,98559.69
2023-03-10T17:19:46.222Z,98562.38
2023-03-10T17:22:15.511Z,98569.75
2023-03-10T17:24:44.740Z,98575.94
2023-03-10T17:27:16.595Z,98584.53
2023-03-10T17:29:45.875Z,98585.56
2023-03-10T17:32:15.275Z,98584.69
2023-03-10T17:34:45.892Z,98583.56
2023-03-10T17:37:15.117Z,98572.72
2023-03-10T17:39:44.370Z,98571.69
2023-03-10T17:42:14.899Z,98558.59
2023-03-10T17:44:46.782Z,98547.59
2023-03-10T17:47:16.279Z,98546.88
2023-03-10T17:49:45.519Z,98550.41
2023-03-10T17:52:14.807Z,98557.00
2023-03-10T17:54:44.207Z,98548.72
2023-03-10T17:57:13.474Z,98555.94
2023-03-10T17:59:43.260Z,98555.53
2023-03-10T18:02:15.785Z,98556.25
2023-03-10T18:04:46.650Z,98564.06
2023-03-10T18:07:16.059Z,98562.69
2023-03-10T18:09:45.318Z,98559.97
2023-03-10T18:12:14.563Z,98562.00
2023-03-10T18:14:43.837Z,98568.97
2023-03-10T18:17:15.682Z,98567.47
2023-03-10T18:19:44.982Z,98565.03
2023-03-10T18:22:14.436Z,98561.41
2023-03-10T18:24:43.695Z,98555.81
2023-03-10T18:27:12.994Z,98559.03
2023-03-10T18:29:42.317Z,98552.44
2023-03-10T18:32:11.812Z,98560.94
2023-03-10T18:34:43.692Z,98547.63
2023-03-10T18:37:13.066Z,98555.72
2023-03-10T18:39:42.335Z,98550.81
2023-03-10T18:42:11.592Z,98560.63
2023-03-10T18:44:41.393Z,98563.28
2023-03-10T18:47:10.713Z,98563.06
2023-03-10T18:49:39.950Z,98566.22
2023-03-10T18:52:15.851Z,98565.41
2023-03-10T18:54:45.173Z,98568.00
2023-03-10T18:57:15.064Z,98560.88
2023-03-10T18:59:44.574Z,98556.63
2023-03-10T19:02:16.655Z,98561.09
2023-03-10T19:04:47.944Z,98557.00
2023-03-10T19:07:22.242Z,98563.06
2023-03-10T19:09:55.738Z,98563.28
2023-03-10T19:12:25.047Z,98568.28
2023-03-10T19:14:56.101Z,98563.91
2023-03-10T19:17:26.588Z,98555.56
2023-03-10T19:19:56.135Z,98563.44
2023-03-10T19:22:28.598Z,98566.56
2023-03-10T19:24:58.045Z,98572.91
2023-03-10T19:27:27.417Z,98568.41
2023-03-10T19:29:56.739Z,98572.34
2023-03-10T19:32:26.109Z,98573.13
2023-03-10T19:34:55.499Z,98584.84
2023-03-10T19:37:24.758Z,98581.59
2023-03-10T19:39:56.592Z,98594.22
2023-03-10T19:42:26.434Z,98600.66
2023-03-10T19:44:55.667Z,98598.19
2023-03-10T19:47:24.914Z,98608.13
2023-03-10T19:49:54.182Z,98616.97
2023-03-10T19:52:23.862Z,98626.75
2023-03-10T19:54:55.761Z,98630.94
2023-03-10T19:57:24.972Z,98641.31
2023-03-10T19:59:54.236Z,98649.72
2023-03-10T20:02:24.682Z,98654.38
2023-03-10T20:04:54.042Z,98659.47
2023-03-10T20:07:23.307Z,98678.88
2023-03-10T20:09:52.567Z,98681.84
2023-03-10T20:12:24.487Z,98690.94
2023-03-10T20:14:58.746Z,98691.59
2023-03-10T20:17:28.107Z,98703.47
2023-03-10T20:19:57.660Z,98697.91
2023-03-10T20:22:27.037Z,98709.66
2023-03-10T20:24:56.352Z,98713.03
2023-03-10T20:27:28.579Z,98723.50
2023-03-10T20:29:57.840Z,98733.84
2023-03-10T20:32:27.174Z,98747.38
2023-03-10T20:34:56.543Z,98757.50
2023-03-10T20:37:25.767Z,98766.03
2023-03-10T20:39:55.587Z,98771.81
2023-03-10T20:42:24.948Z,98774.31
2023-03-10T20:44:56.984Z,98786.31
2023-03-10T20:47:26.675Z,98797.97
2023-03-10T20:49:55.974Z,98801.47
2023-03-10T20:52:25.619Z,98808.00
2023-03-10T20:54:56.058Z,98809.50
2023-03-10T20:57:25.329Z,98818.22
2023-03-10T20:59:58.204Z,98827.56
2023-03-10T21:02:27.462Z,98835.72
2023-03-10T21:04:57.960Z,98834.66
2023-03-10T21:07:27.243Z,98838.63
2023-03-10T21:09:58.036Z,98842.13
2023-03-10T21:12:27.356Z,98848.09
2023-03-10T21:14:59.555Z,98860.41
2023-03-10T21:17:29.699Z,98867.50
2023-03-10T21:19:59.096Z,98873.88
2023-03-10T21:22:30.473Z,98889.09
2023-03-10T21:25:00.286Z,98900.63
2023-03-10T21:27:30.944Z,98902.00
2023-03-10T21:30:04.553Z,98913.28
2023-03-10T21:32:33.880Z,98922.38
2023-03-10T21:35:04.363Z,98933.78
2023-03-10T21:37:35.762Z,98938.03
2023-03-10T21:40:09.758Z,98947.03
2023-03-10T21:42:39.167Z,98947.38
2023-03-10T21:45:14.313Z,98963.16
2023-03-10T21:47:43.598Z,98975.47
2023-03-10T21:50:14.592Z,98972.59
2023-03-10T21:52:44.704Z,98975.56
2023-03-10T21:55:20.239Z,98990.44
2023-03-10T21:57:50.604Z,98981.22
2023-03-10T22:00:25.808Z,98988.03
2023-03-10T22:02:55.896Z,99001.47
2023-03-10T22:05:25.626Z,99006.69
2023-03-10T22:07:56.047Z,99009.31
2023-03-10T22:10:25.354Z,99019.94
2023-03-10T22:12:54.819Z,99011.53
2023-03-10T22:15:29.212Z,99023.25
2023-03-10T22:17:59.608Z,99038.81
2023-03-10T22:20:30.623Z,99030.66
2023-03-10T22:22:59.883Z,99049.47
2023-03-10T22:25:29.402Z,99052.59
2023-03-10T22:27:59.912Z,99054.06
2023-03-10T22:30:32.495Z,99054.44
2023-03-10T22:33:04.630Z,99056.16
2023-03-10T22:35:33.880Z,99064.91
2023-03-10T22:38:03.214Z,99071.94
2023-03-10T22:40:32.819Z,99070.44
2023-03-10T22:43:02.126Z,99075.38
2023-03-10T22:45:35.468Z,99084.03
2023-03-10T22:48:08.562Z,99094.03
2023-03-10T22:50:40.509Z,99096.56
2023-03-10T22:53:14.935Z,99114.53
2023-03-10T22:55:46.449Z,99107.72
2023-03-10T22:58:16.267Z,99112.88
2023-03-10T23:00:48.529Z,99113.97
2023-03-10T23:03:17.842Z,99131.03
2023-03-10T23:05:47.748Z,99128.25
2023-03-10T23:08:17.005Z,99144.06
2023-03-10T23:10:46.903Z,99142.63
2023-03-10T23:13:18.341Z,99152.41
2023-03-10T23:15:50.218Z,99156.88
2023-03-10T23:18:19.744Z,99161.47
2023-03-10T23:20:52.975Z,99182.97
2023-03-10T23:23:22.274Z,99174.16
2023-03-10T23:25:53.036Z,99190.00
2023-03-10T23:28:23.656Z,99189.31
2023-03-10T23:30:55.622Z,99196.41
2023-03-10T23:33:26.570Z,99204.72
2023-03-10T23:35:56.347Z,99209.38
2023-03-10T23:38:27.693Z,99211.97
2023-03-10T23:40:58.091Z,99232.78
2023-03-10T23:43:27.672Z,99231.03
2023-03-10T23:45:59.865Z,99244.13
2023-03-10T23:48:29.666Z,99261.09
2023-03-10T23:50:59.076Z,99272.88
2023-03-10T23:53:29.057Z,99270.75
2023-03-10T23:56:00.352Z,99276.91
2023-03-10T23:58:31.690Z,99288.47
